sensor_id;sensor_type;location;lat;lon;timestamp;P1;durP1;ratioP1;P2;durP2;ratioP2
80313;SDS011;69628;47.516;18.828;2024-02-15T00:00:58;15.15;;;5.78;;
80313;SDS011;69628;47.516;18.828;2024-02-15T00:02:00;14.70;;;5.75;;
80313;SDS011;69628;47.516;18.828;2024-02-15T00:03:00;12.70;;;5.63;;
80313;SDS011;69628;47.516;18.828;2024-02-15T00:04:01;14.68;;;5.65;;
80313;SDS011;69628;47.516;18.828;2024-02-15T00:05:01;19.00;;;6.18;;
80313;SDS011;69628;47.516;18.828;2024-02-15T00:06:01;17.77;;;6.70;;
80313;SDS011;69628;47.516;18.828;2024-02-15T00:07:02;12.77;;;6.00;;
80313;SDS011;69628;47.516;18.828;2024-02-15T00:08:02;16.75;;;6.43;;
80313;SDS011;69628;47.516;18.828;2024-02-15T00:09:04;11.27;;;5.65;;
80313;SDS011;69628;47.516;18.828;2024-02-15T00:10:04;14.43;;;6.07;;
80313;SDS011;69628;47.516;18.828;2024-02-15T00:11:05;12.52;;;5.63;;
80313;SDS011;69628;47.516;18.828;2024-02-15T00:12:05;13.98;;;5.05;;
80313;SDS011;69628;47.516;18.828;2024-02-15T00:13:06;14.48;;;5.15;;
80313;SDS011;69628;47.516;18.828;2024-02-15T00:14:06;15.52;;;7.28;;
80313;SDS011;69628;47.516;18.828;2024-02-15T00:15:07;10.98;;;5.70;;
80313;SDS011;69628;47.516;18.828;2024-02-15T00:16:08;13.18;;;5.95;;
80313;SDS011;69628;47.516;18.828;2024-02-15T00:17:13;20.00;;;6.75;;
80313;SDS011;69628;47.516;18.828;2024-02-15T00:18:13;20.80;;;6.50;;
80313;SDS011;69628;47.516;18.828;2024-02-15T00:19:14;13.48;;;5.97;;
80313;SDS011;69628;47.516;18.828;2024-02-15T00:20:17;14.38;;;5.97;;
80313;SDS011;69628;47.516;18.828;2024-02-15T00:21:17;15.20;;;6.97;;
80313;SDS011;69628;47.516;18.828;2024-02-15T00:22:18;17.17;;;6.03;;
80313;SDS011;69628;47.516;18.828;2024-02-15T00:23:20;11.70;;;5.50;;
80313;SDS011;69628;47.516;18.828;2024-02-15T00:24:21;16.02;;;6.70;;
80313;SDS011;69628;47.516;18.828;2024-02-15T00:25:21;14.05;;;6.50;;
80313;SDS011;69628;47.516;18.828;2024-02-15T00:26:22;11.65;;;5.90;;
80313;SDS011;69628;47.516;18.828;2024-02-15T00:27:22;11.45;;;6.47;;
80313;SDS011;69628;47.516;18.828;2024-02-15T00:28:22;16.38;;;6.38;;
80313;SDS011;69628;47.516;18.828;2024-02-15T00:29:24;16.60;;;5.75;;
80313;SDS011;69628;47.516;18.828;2024-02-15T00:30:26;20.48;;;7.53;;
80313;SDS011;69628;47.516;18.828;2024-02-15T00:31:27;14.00;;;6.60;;
80313;SDS011;69628;47.516;18.828;2024-02-15T00:32:27;16.08;;;6.22;;
80313;SDS011;69628;47.516;18.828;2024-02-15T00:33:28;15.25;;;5.32;;
80313;SDS011;69628;47.516;18.828;2024-02-15T00:34:29;13.35;;;6.35;;
80313;SDS011;69628;47.516;18.828;2024-02-15T00:35:29;13.82;;;6.18;;
80313;SDS011;69628;47.516;18.828;2024-02-15T00:36:29;16.08;;;5.68;;
80313;SDS011;69628;47.516;18.828;2024-02-15T00:37:30;11.52;;;5.82;;
80313;SDS011;69628;47.516;18.828;2024-02-15T00:38:33;17.98;;;6.28;;
80313;SDS011;69628;47.516;18.828;2024-02-15T00:39:34;16.30;;;6.40;;
80313;SDS011;69628;47.516;18.828;2024-02-15T00:40:34;16.45;;;6.13;;
80313;SDS011;69628;47.516;18.828;2024-02-15T00:41:34;9.90;;;4.95;;
80313;SDS011;69628;47.516;18.828;2024-02-15T00:42:35;13.38;;;5.95;;
80313;SDS011;69628;47.516;18.828;2024-02-15T00:43:36;21.33;;;7.22;;
80313;SDS011;69628;47.516;18.828;2024-02-15T00:44:36;13.18;;;6.35;;
80313;SDS011;69628;47.516;18.828;2024-02-15T00:45:37;12.55;;;5.53;;
80313;SDS011;69628;47.516;18.828;2024-02-15T00:46:37;23.63;;;6.97;;
80313;SDS011;69628;47.516;18.828;2024-02-15T00:47:38;15.27;;;6.43;;
80313;SDS011;69628;47.516;18.828;2024-02-15T00:48:38;11.65;;;5.38;;
80313;SDS011;69628;47.516;18.828;2024-02-15T00:49:41;11.38;;;5.57;;
80313;SDS011;69628;47.516;18.828;2024-02-15T00:50:41;10.43;;;5.43;;
80313;SDS011;69628;47.516;18.828;2024-02-15T00:51:41;22.17;;;6.28;;
80313;SDS011;69628;47.516;18.828;2024-02-15T00:52:42;10.48;;;5.20;;
80313;SDS011;69628;47.516;18.828;2024-02-15T00:53:42;15.98;;;5.25;;
80313;SDS011;69628;47.516;18.828;2024-02-15T00:54:42;15.65;;;4.97;;
80313;SDS011;69628;47.516;18.828;2024-02-15T00:55:43;12.45;;;5.25;;
80313;SDS011;69628;47.516;18.828;2024-02-15T00:56:43;20.10;;;5.40;;
80313;SDS011;69628;47.516;18.828;2024-02-15T00:57:43;11.23;;;4.95;;
80313;SDS011;69628;47.516;18.828;2024-02-15T00:58:44;10.57;;;5.10;;
80313;SDS011;69628;47.516;18.828;2024-02-15T00:59:44;25.73;;;5.15;;
80313;SDS011;69628;47.516;18.828;2024-02-15T01:00:44;10.57;;;5.03;;
80313;SDS011;69628;47.516;18.828;2024-02-15T01:01:45;8.93;;;3.97;;
80313;SDS011;69628;47.516;18.828;2024-02-15T01:02:46;8.32;;;4.53;;
80313;SDS011;69628;47.516;18.828;2024-02-15T01:03:47;10.85;;;4.72;;
80313;SDS011;69628;47.516;18.828;2024-02-15T01:04:47;14.75;;;4.45;;
80313;SDS011;69628;47.516;18.828;2024-02-15T01:05:47;11.48;;;4.55;;
80313;SDS011;69628;47.516;18.828;2024-02-15T01:06:48;13.45;;;3.92;;
80313;SDS011;69628;47.516;18.828;2024-02-15T01:07:48;12.95;;;4.43;;
80313;SDS011;69628;47.516;18.828;2024-02-15T01:08:49;8.82;;;4.78;;
80313;SDS011;69628;47.516;18.828;2024-02-15T01:09:49;16.73;;;5.32;;
80313;SDS011;69628;47.516;18.828;2024-02-15T01:10:50;10.13;;;4.50;;
80313;SDS011;69628;47.516;18.828;2024-02-15T01:11:50;6.07;;;3.42;;
80313;SDS011;69628;47.516;18.828;2024-02-15T01:12:50;7.03;;;4.00;;
80313;SDS011;69628;47.516;18.828;2024-02-15T01:13:51;11.02;;;5.10;;
80313;SDS011;69628;47.516;18.828;2024-02-15T01:14:52;8.85;;;4.03;;
80313;SDS011;69628;47.516;18.828;2024-02-15T01:15:53;9.95;;;4.43;;
80313;SDS011;69628;47.516;18.828;2024-02-15T01:16:53;8.63;;;4.50;;
80313;SDS011;69628;47.516;18.828;2024-02-15T01:17:54;9.73;;;3.33;;
80313;SDS011;69628;47.516;18.828;2024-02-15T01:18:54;8.93;;;4.25;;
80313;SDS011;69628;47.516;18.828;2024-02-15T01:19:55;8.75;;;4.13;;
80313;SDS011;69628;47.516;18.828;2024-02-15T01:20:55;5.43;;;3.35;;
80313;SDS011;69628;47.516;18.828;2024-02-15T01:21:56;9.80;;;3.83;;
80313;SDS011;69628;47.516;18.828;2024-02-15T01:22:58;6.82;;;4.13;;
80313;SDS011;69628;47.516;18.828;2024-02-15T01:23:58;8.10;;;4.65;;
80313;SDS011;69628;47.516;18.828;2024-02-15T01:25:00;12.05;;;3.97;;
80313;SDS011;69628;47.516;18.828;2024-02-15T01:26:01;7.22;;;3.47;;
80313;SDS011;69628;47.516;18.828;2024-02-15T01:27:01;15.98;;;3.85;;
80313;SDS011;69628;47.516;18.828;2024-02-15T01:28:02;4.55;;;3.00;;
80313;SDS011;69628;47.516;18.828;2024-02-15T01:29:02;15.77;;;3.90;;
80313;SDS011;69628;47.516;18.828;2024-02-15T01:30:03;11.88;;;3.97;;
80313;SDS011;69628;47.516;18.828;2024-02-15T01:31:04;4.72;;;2.95;;
80313;SDS011;69628;47.516;18.828;2024-02-15T01:32:06;7.13;;;4.15;;
80313;SDS011;69628;47.516;18.828;2024-02-15T01:33:25;5.88;;;2.85;;
80313;SDS011;69628;47.516;18.828;2024-02-15T01:34:26;13.05;;;3.10;;
80313;SDS011;69628;47.516;18.828;2024-02-15T01:35:27;13.25;;;4.30;;
80313;SDS011;69628;47.516;18.828;2024-02-15T01:36:28;4.90;;;2.90;;
80313;SDS011;69628;47.516;18.828;2024-02-15T01:37:28;7.70;;;2.63;;
80313;SDS011;69628;47.516;18.828;2024-02-15T01:38:28;5.93;;;3.13;;
80313;SDS011;69628;47.516;18.828;2024-02-15T01:39:29;10.60;;;3.97;;
80313;SDS011;69628;47.516;18.828;2024-02-15T01:40:29;6.15;;;3.17;;
80313;SDS011;69628;47.516;18.828;2024-02-15T01:41:29;11.15;;;3.80;;
80313;SDS011;69628;47.516;18.828;2024-02-15T01:42:30;5.88;;;3.75;;
80313;SDS011;69628;47.516;18.828;2024-02-15T01:43:30;5.60;;;3.20;;
80313;SDS011;69628;47.516;18.828;2024-02-15T01:44:31;7.68;;;3.35;;
80313;SDS011;69628;47.516;18.828;2024-02-15T01:45:31;5.18;;;3.33;;
80313;SDS011;69628;47.516;18.828;2024-02-15T01:46:32;10.80;;;2.97;;
80313;SDS011;69628;47.516;18.828;2024-02-15T01:47:33;7.45;;;3.28;;
80313;SDS011;69628;47.516;18.828;2024-02-15T01:48:34;4.97;;;2.72;;
80313;SDS011;69628;47.516;18.828;2024-02-15T01:49:39;9.13;;;3.70;;
80313;SDS011;69628;47.516;18.828;2024-02-15T01:50:41;4.25;;;2.92;;
80313;SDS011;69628;47.516;18.828;2024-02-15T01:51:42;4.78;;;2.80;;
80313;SDS011;69628;47.516;18.828;2024-02-15T01:52:43;6.85;;;3.30;;
80313;SDS011;69628;47.516;18.828;2024-02-15T01:53:44;5.03;;;2.95;;
80313;SDS011;69628;47.516;18.828;2024-02-15T01:54:44;5.28;;;2.90;;
80313;SDS011;69628;47.516;18.828;2024-02-15T01:55:45;5.05;;;2.72;;
80313;SDS011;69628;47.516;18.828;2024-02-15T01:56:46;6.28;;;3.22;;
80313;SDS011;69628;47.516;18.828;2024-02-15T01:57:47;5.97;;;2.70;;
80313;SDS011;69628;47.516;18.828;2024-02-15T01:58:48;9.68;;;2.78;;
80313;SDS011;69628;47.516;18.828;2024-02-15T01:59:50;9.02;;;4.32;;
80313;SDS011;69628;47.516;18.828;2024-02-15T02:00:52;5.10;;;2.85;;
80313;SDS011;69628;47.516;18.828;2024-02-15T02:01:53;3.55;;;2.15;;
80313;SDS011;69628;47.516;18.828;2024-02-15T02:02:53;5.90;;;3.40;;
80313;SDS011;69628;47.516;18.828;2024-02-15T02:04:02;5.53;;;3.42;;
80313;SDS011;69628;47.516;18.828;2024-02-15T02:05:03;9.07;;;3.97;;
80313;SDS011;69628;47.516;18.828;2024-02-15T02:06:06;5.25;;;2.72;;
80313;SDS011;69628;47.516;18.828;2024-02-15T02:07:07;7.13;;;3.17;;
80313;SDS011;69628;47.516;18.828;2024-02-15T02:08:07;5.97;;;2.85;;
80313;SDS011;69628;47.516;18.828;2024-02-15T02:09:12;13.10;;;3.85;;
80313;SDS011;69628;47.516;18.828;2024-02-15T02:10:12;3.55;;;2.65;;
80313;SDS011;69628;47.516;18.828;2024-02-15T02:11:14;6.60;;;3.35;;
80313;SDS011;69628;47.516;18.828;2024-02-15T02:12:14;9.88;;;2.65;;
80313;SDS011;69628;47.516;18.828;2024-02-15T02:13:15;5.93;;;3.15;;
80313;SDS011;69628;47.516;18.828;2024-02-15T02:14:15;7.50;;;2.70;;
80313;SDS011;69628;47.516;18.828;2024-02-15T02:15:16;9.65;;;2.58;;
80313;SDS011;69628;47.516;18.828;2024-02-15T02:17:29;5.78;;;3.50;;
80313;SDS011;69628;47.516;18.828;2024-02-15T02:18:29;5.53;;;3.10;;
80313;SDS011;69628;47.516;18.828;2024-02-15T02:19:30;4.28;;;2.63;;
80313;SDS011;69628;47.516;18.828;2024-02-15T02:20:30;6.10;;;2.90;;
80313;SDS011;69628;47.516;18.828;2024-02-15T02:21:31;10.07;;;2.47;;
80313;SDS011;69628;47.516;18.828;2024-02-15T02:22:34;8.80;;;2.47;;
80313;SDS011;69628;47.516;18.828;2024-02-15T02:23:35;6.22;;;2.90;;
80313;SDS011;69628;47.516;18.828;2024-02-15T02:24:40;5.82;;;2.75;;
80313;SDS011;69628;47.516;18.828;2024-02-15T02:26:03;6.72;;;2.35;;
80313;SDS011;69628;47.516;18.828;2024-02-15T02:27:04;4.30;;;2.20;;
80313;SDS011;69628;47.516;18.828;2024-02-15T02:28:05;5.13;;;2.55;;
80313;SDS011;69628;47.516;18.828;2024-02-15T02:29:07;6.43;;;2.55;;
80313;SDS011;69628;47.516;18.828;2024-02-15T02:30:15;5.47;;;2.20;;
80313;SDS011;69628;47.516;18.828;2024-02-15T02:31:17;6.68;;;2.47;;
80313;SDS011;69628;47.516;18.828;2024-02-15T02:32:17;4.10;;;2.80;;
80313;SDS011;69628;47.516;18.828;2024-02-15T02:33:18;9.20;;;3.10;;
80313;SDS011;69628;47.516;18.828;2024-02-15T02:34:18;8.80;;;3.70;;
80313;SDS011;69628;47.516;18.828;2024-02-15T02:35:19;6.28;;;2.72;;
80313;SDS011;69628;47.516;18.828;2024-02-15T02:36:20;3.35;;;2.22;;
80313;SDS011;69628;47.516;18.828;2024-02-15T02:37:21;6.40;;;2.95;;
80313;SDS011;69628;47.516;18.828;2024-02-15T02:38:21;6.30;;;2.65;;
80313;SDS011;69628;47.516;18.828;2024-02-15T02:39:22;9.20;;;2.83;;
80313;SDS011;69628;47.516;18.828;2024-02-15T02:40:23;3.08;;;1.83;;
80313;SDS011;69628;47.516;18.828;2024-02-15T02:41:23;5.95;;;2.85;;
80313;SDS011;69628;47.516;18.828;2024-02-15T02:42:23;4.25;;;2.25;;
80313;SDS011;69628;47.516;18.828;2024-02-15T02:43:24;6.55;;;2.17;;
80313;SDS011;69628;47.516;18.828;2024-02-15T02:44:24;7.18;;;2.40;;
80313;SDS011;69628;47.516;18.828;2024-02-15T02:45:24;6.72;;;2.55;;
80313;SDS011;69628;47.516;18.828;2024-02-15T02:46:25;4.47;;;2.53;;
80313;SDS011;69628;47.516;18.828;2024-02-15T02:47:25;3.58;;;2.05;;
80313;SDS011;69628;47.516;18.828;2024-02-15T02:48:26;12.27;;;3.05;;
80313;SDS011;69628;47.516;18.828;2024-02-15T02:49:27;3.33;;;2.00;;
80313;SDS011;69628;47.516;18.828;2024-02-15T02:50:27;5.68;;;2.33;;
80313;SDS011;69628;47.516;18.828;2024-02-15T02:51:28;4.75;;;2.33;;
80313;SDS011;69628;47.516;18.828;2024-02-15T02:52:28;4.35;;;2.55;;
80313;SDS011;69628;47.516;18.828;2024-02-15T02:53:28;3.80;;;2.58;;
80313;SDS011;69628;47.516;18.828;2024-02-15T02:54:29;12.43;;;2.60;;
80313;SDS011;69628;47.516;18.828;2024-02-15T02:55:29;4.45;;;3.03;;
80313;SDS011;69628;47.516;18.828;2024-02-15T02:56:31;4.25;;;1.75;;
80313;SDS011;69628;47.516;18.828;2024-02-15T02:57:32;3.53;;;2.15;;
80313;SDS011;69628;47.516;18.828;2024-02-15T02:58:32;8.07;;;2.40;;
80313;SDS011;69628;47.516;18.828;2024-02-15T02:59:33;4.22;;;2.58;;
80313;SDS011;69628;47.516;18.828;2024-02-15T03:00:35;8.70;;;2.42;;
80313;SDS011;69628;47.516;18.828;2024-02-15T03:01:37;5.65;;;2.85;;
80313;SDS011;69628;47.516;18.828;2024-02-15T03:02:39;3.00;;;2.45;;
80313;SDS011;69628;47.516;18.828;2024-02-15T03:03:40;5.53;;;2.50;;
80313;SDS011;69628;47.516;18.828;2024-02-15T03:04:40;4.50;;;2.33;;
80313;SDS011;69628;47.516;18.828;2024-02-15T03:05:41;3.63;;;2.60;;
80313;SDS011;69628;47.516;18.828;2024-02-15T03:06:41;6.38;;;2.90;;
80313;SDS011;69628;47.516;18.828;2024-02-15T03:07:44;5.45;;;2.35;;
80313;SDS011;69628;47.516;18.828;2024-02-15T03:08:45;5.95;;;2.38;;
80313;SDS011;69628;47.516;18.828;2024-02-15T03:09:46;8.98;;;2.90;;
80313;SDS011;69628;47.516;18.828;2024-02-15T03:10:47;7.55;;;2.95;;
80313;SDS011;69628;47.516;18.828;2024-02-15T03:11:47;6.47;;;2.53;;
80313;SDS011;69628;47.516;18.828;2024-02-15T03:12:47;7.10;;;3.25;;
80313;SDS011;69628;47.516;18.828;2024-02-15T03:13:48;9.55;;;3.35;;
80313;SDS011;69628;47.516;18.828;2024-02-15T03:14:48;3.53;;;2.53;;
80313;SDS011;69628;47.516;18.828;2024-02-15T03:15:49;5.88;;;2.67;;
80313;SDS011;69628;47.516;18.828;2024-02-15T03:16:49;9.25;;;2.88;;
80313;SDS011;69628;47.516;18.828;2024-02-15T03:17:50;3.95;;;2.85;;
80313;SDS011;69628;47.516;18.828;2024-02-15T03:18:51;4.63;;;2.88;;
80313;SDS011;69628;47.516;18.828;2024-02-15T03:19:52;8.02;;;3.42;;
80313;SDS011;69628;47.516;18.828;2024-02-15T03:20:53;3.58;;;2.38;;
80313;SDS011;69628;47.516;18.828;2024-02-15T03:21:53;5.88;;;2.70;;
80313;SDS011;69628;47.516;18.828;2024-02-15T03:22:54;5.82;;;2.65;;
80313;SDS011;69628;47.516;18.828;2024-02-15T03:23:55;6.57;;;2.80;;
80313;SDS011;69628;47.516;18.828;2024-02-15T03:24:55;4.40;;;2.17;;
80313;SDS011;69628;47.516;18.828;2024-02-15T03:25:56;8.13;;;3.35;;
80313;SDS011;69628;47.516;18.828;2024-02-15T03:26:56;5.20;;;2.67;;
80313;SDS011;69628;47.516;18.828;2024-02-15T03:27:57;5.30;;;3.10;;
80313;SDS011;69628;47.516;18.828;2024-02-15T03:28:58;7.03;;;2.55;;
80313;SDS011;69628;47.516;18.828;2024-02-15T03:29:59;5.50;;;3.25;;
80313;SDS011;69628;47.516;18.828;2024-02-15T03:31:00;11.23;;;2.65;;
80313;SDS011;69628;47.516;18.828;2024-02-15T03:32:01;5.57;;;2.80;;
80313;SDS011;69628;47.516;18.828;2024-02-15T03:33:04;10.18;;;2.90;;
80313;SDS011;69628;47.516;18.828;2024-02-15T03:34:05;3.90;;;2.15;;
80313;SDS011;69628;47.516;18.828;2024-02-15T03:35:05;5.97;;;3.35;;
80313;SDS011;69628;47.516;18.828;2024-02-15T03:36:06;4.65;;;2.72;;
80313;SDS011;69628;47.516;18.828;2024-02-15T03:37:07;4.00;;;2.55;;
80313;SDS011;69628;47.516;18.828;2024-02-15T03:38:07;3.85;;;2.40;;
80313;SDS011;69628;47.516;18.828;2024-02-15T03:39:08;6.75;;;3.20;;
80313;SDS011;69628;47.516;18.828;2024-02-15T03:40:08;4.45;;;3.03;;
80313;SDS011;69628;47.516;18.828;2024-02-15T03:41:09;5.60;;;3.72;;
80313;SDS011;69628;47.516;18.828;2024-02-15T03:42:09;7.90;;;2.83;;
80313;SDS011;69628;47.516;18.828;2024-02-15T03:43:10;9.18;;;2.72;;
80313;SDS011;69628;47.516;18.828;2024-02-15T03:44:11;5.10;;;2.78;;
80313;SDS011;69628;47.516;18.828;2024-02-15T03:45:12;8.75;;;2.67;;
80313;SDS011;69628;47.516;18.828;2024-02-15T03:46:13;7.95;;;2.70;;
80313;SDS011;69628;47.516;18.828;2024-02-15T03:47:14;3.97;;;2.40;;
80313;SDS011;69628;47.516;18.828;2024-02-15T03:48:15;4.40;;;2.60;;
80313;SDS011;69628;47.516;18.828;2024-02-15T03:49:15;7.95;;;2.88;;
80313;SDS011;69628;47.516;18.828;2024-02-15T03:50:16;6.53;;;3.35;;
80313;SDS011;69628;47.516;18.828;2024-02-15T03:51:18;5.10;;;2.88;;
80313;SDS011;69628;47.516;18.828;2024-02-15T03:52:20;6.53;;;4.10;;
80313;SDS011;69628;47.516;18.828;2024-02-15T03:53:22;5.25;;;3.20;;
80313;SDS011;69628;47.516;18.828;2024-02-15T03:54:22;7.68;;;2.90;;
80313;SDS011;69628;47.516;18.828;2024-02-15T03:55:23;7.75;;;3.10;;
80313;SDS011;69628;47.516;18.828;2024-02-15T03:56:25;6.78;;;3.17;;
80313;SDS011;69628;47.516;18.828;2024-02-15T03:57:26;11.88;;;3.47;;
80313;SDS011;69628;47.516;18.828;2024-02-15T03:58:26;12.57;;;4.32;;
80313;SDS011;69628;47.516;18.828;2024-02-15T03:59:26;8.07;;;4.25;;
80313;SDS011;69628;47.516;18.828;2024-02-15T04:00:27;5.15;;;2.95;;
80313;SDS011;69628;47.516;18.828;2024-02-15T04:01:27;7.60;;;3.40;;
80313;SDS011;69628;47.516;18.828;2024-02-15T04:02:30;8.95;;;3.50;;
80313;SDS011;69628;47.516;18.828;2024-02-15T04:03:30;8.27;;;3.38;;
80313;SDS011;69628;47.516;18.828;2024-02-15T04:04:32;13.60;;;3.20;;
80313;SDS011;69628;47.516;18.828;2024-02-15T04:05:33;6.32;;;2.70;;
80313;SDS011;69628;47.516;18.828;2024-02-15T04:06:33;6.38;;;3.40;;
80313;SDS011;69628;47.516;18.828;2024-02-15T04:07:34;16.63;;;4.07;;
80313;SDS011;69628;47.516;18.828;2024-02-15T04:08:37;4.47;;;2.55;;
80313;SDS011;69628;47.516;18.828;2024-02-15T04:09:39;8.43;;;3.25;;
80313;SDS011;69628;47.516;18.828;2024-02-15T04:10:39;10.10;;;4.28;;
80313;SDS011;69628;47.516;18.828;2024-02-15T04:11:39;5.28;;;3.28;;
80313;SDS011;69628;47.516;18.828;2024-02-15T04:12:40;7.75;;;3.72;;
80313;SDS011;69628;47.516;18.828;2024-02-15T04:13:43;14.00;;;4.15;;
80313;SDS011;69628;47.516;18.828;2024-02-15T04:14:44;9.25;;;4.18;;
80313;SDS011;69628;47.516;18.828;2024-02-15T04:15:47;9.82;;;3.60;;
80313;SDS011;69628;47.516;18.828;2024-02-15T04:16:49;4.15;;;2.80;;
80313;SDS011;69628;47.516;18.828;2024-02-15T04:17:50;6.57;;;4.13;;
80313;SDS011;69628;47.516;18.828;2024-02-15T04:18:55;8.55;;;3.45;;
80313;SDS011;69628;47.516;18.828;2024-02-15T04:19:59;7.40;;;3.35;;
80313;SDS011;69628;47.516;18.828;2024-02-15T04:20:59;7.63;;;3.95;;
80313;SDS011;69628;47.516;18.828;2024-02-15T04:21:59;8.57;;;3.78;;
80313;SDS011;69628;47.516;18.828;2024-02-15T04:23:00;5.15;;;3.00;;
80313;SDS011;69628;47.516;18.828;2024-02-15T04:24:01;10.40;;;4.25;;
80313;SDS011;69628;47.516;18.828;2024-02-15T04:25:01;14.77;;;3.55;;
80313;SDS011;69628;47.516;18.828;2024-02-15T04:26:01;6.72;;;3.90;;
80313;SDS011;69628;47.516;18.828;2024-02-15T04:27:03;7.82;;;3.50;;
80313;SDS011;69628;47.516;18.828;2024-02-15T04:28:04;7.18;;;3.05;;
80313;SDS011;69628;47.516;18.828;2024-02-15T04:29:04;9.23;;;3.45;;
80313;SDS011;69628;47.516;18.828;2024-02-15T04:30:05;6.55;;;3.15;;
80313;SDS011;69628;47.516;18.828;2024-02-15T04:31:07;7.43;;;3.53;;
80313;SDS011;69628;47.516;18.828;2024-02-15T04:32:08;7.78;;;4.05;;
80313;SDS011;69628;47.516;18.828;2024-02-15T04:33:09;9.73;;;4.80;;
80313;SDS011;69628;47.516;18.828;2024-02-15T04:34:10;5.13;;;3.53;;
80313;SDS011;69628;47.516;18.828;2024-02-15T04:35:11;7.85;;;4.45;;
80313;SDS011;69628;47.516;18.828;2024-02-15T04:36:11;6.55;;;3.83;;
80313;SDS011;69628;47.516;18.828;2024-02-15T04:37:12;12.48;;;3.70;;
80313;SDS011;69628;47.516;18.828;2024-02-15T04:38:13;7.60;;;4.05;;
80313;SDS011;69628;47.516;18.828;2024-02-15T04:39:13;8.60;;;4.20;;
80313;SDS011;69628;47.516;18.828;2024-02-15T04:40:23;8.82;;;4.78;;
80313;SDS011;69628;47.516;18.828;2024-02-15T04:41:24;11.35;;;4.63;;
80313;SDS011;69628;47.516;18.828;2024-02-15T04:42:24;9.82;;;4.25;;
80313;SDS011;69628;47.516;18.828;2024-02-15T04:43:26;11.98;;;5.57;;
80313;SDS011;69628;47.516;18.828;2024-02-15T04:44:27;10.23;;;6.05;;
80313;SDS011;69628;47.516;18.828;2024-02-15T04:45:27;14.40;;;4.65;;
80313;SDS011;69628;47.516;18.828;2024-02-15T04:46:28;10.93;;;4.88;;
80313;SDS011;69628;47.516;18.828;2024-02-15T04:47:29;11.10;;;5.25;;
80313;SDS011;69628;47.516;18.828;2024-02-15T04:48:30;9.02;;;4.25;;
80313;SDS011;69628;47.516;18.828;2024-02-15T04:49:30;8.27;;;3.90;;
80313;SDS011;69628;47.516;18.828;2024-02-15T04:50:31;9.25;;;5.10;;
80313;SDS011;69628;47.516;18.828;2024-02-15T04:51:31;7.50;;;4.45;;
80313;SDS011;69628;47.516;18.828;2024-02-15T04:52:32;7.78;;;4.35;;
80313;SDS011;69628;47.516;18.828;2024-02-15T04:53:32;8.85;;;4.50;;
80313;SDS011;69628;47.516;18.828;2024-02-15T04:54:33;14.45;;;5.30;;
80313;SDS011;69628;47.516;18.828;2024-02-15T04:55:33;12.00;;;5.50;;
80313;SDS011;69628;47.516;18.828;2024-02-15T04:56:35;11.00;;;4.57;;
80313;SDS011;69628;47.516;18.828;2024-02-15T04:57:36;13.98;;;5.03;;
80313;SDS011;69628;47.516;18.828;2024-02-15T04:58:37;12.85;;;5.20;;
80313;SDS011;69628;47.516;18.828;2024-02-15T04:59:38;14.80;;;4.75;;
80313;SDS011;69628;47.516;18.828;2024-02-15T05:00:39;14.55;;;4.80;;
80313;SDS011;69628;47.516;18.828;2024-02-15T05:01:39;8.77;;;4.75;;
80313;SDS011;69628;47.516;18.828;2024-02-15T05:02:42;8.13;;;4.85;;
80313;SDS011;69628;47.516;18.828;2024-02-15T05:03:44;12.07;;;5.55;;
80313;SDS011;69628;47.516;18.828;2024-02-15T05:04:45;13.50;;;5.07;;
80313;SDS011;69628;47.516;18.828;2024-02-15T05:05:46;15.48;;;6.30;;
80313;SDS011;69628;47.516;18.828;2024-02-15T05:06:46;12.13;;;5.20;;
80313;SDS011;69628;47.516;18.828;2024-02-15T05:07:46;15.77;;;6.40;;
80313;SDS011;69628;47.516;18.828;2024-02-15T05:08:49;15.93;;;6.50;;
80313;SDS011;69628;47.516;18.828;2024-02-15T05:09:49;20.27;;;7.30;;
80313;SDS011;69628;47.516;18.828;2024-02-15T05:10:52;16.42;;;6.43;;
80313;SDS011;69628;47.516;18.828;2024-02-15T05:11:59;15.55;;;5.45;;
80313;SDS011;69628;47.516;18.828;2024-02-15T05:13:01;15.38;;;6.47;;
80313;SDS011;69628;47.516;18.828;2024-02-15T05:14:04;17.15;;;7.00;;
80313;SDS011;69628;47.516;18.828;2024-02-15T05:15:06;20.30;;;7.45;;
80313;SDS011;69628;47.516;18.828;2024-02-15T05:16:10;12.38;;;6.18;;
80313;SDS011;69628;47.516;18.828;2024-02-15T05:17:10;15.63;;;6.60;;
80313;SDS011;69628;47.516;18.828;2024-02-15T05:18:12;17.00;;;6.38;;
80313;SDS011;69628;47.516;18.828;2024-02-15T05:19:16;20.23;;;7.47;;
80313;SDS011;69628;47.516;18.828;2024-02-15T05:20:17;13.27;;;6.68;;
80313;SDS011;69628;47.516;18.828;2024-02-15T05:21:19;16.33;;;5.95;;
80313;SDS011;69628;47.516;18.828;2024-02-15T05:22:20;17.35;;;6.60;;
80313;SDS011;69628;47.516;18.828;2024-02-15T05:23:20;17.65;;;6.85;;
80313;SDS011;69628;47.516;18.828;2024-02-15T05:24:21;11.95;;;6.55;;
80313;SDS011;69628;47.516;18.828;2024-02-15T05:25:22;15.48;;;5.70;;
80313;SDS011;69628;47.516;18.828;2024-02-15T05:26:22;19.00;;;6.63;;
80313;SDS011;69628;47.516;18.828;2024-02-15T05:27:23;23.30;;;7.50;;
80313;SDS011;69628;47.516;18.828;2024-02-15T05:28:23;12.23;;;6.25;;
80313;SDS011;69628;47.516;18.828;2024-02-15T05:29:26;13.25;;;7.18;;
80313;SDS011;69628;47.516;18.828;2024-02-15T05:30:28;13.98;;;5.32;;
80313;SDS011;69628;47.516;18.828;2024-02-15T05:31:29;13.35;;;6.10;;
80313;SDS011;69628;47.516;18.828;2024-02-15T05:32:30;19.85;;;6.55;;
80313;SDS011;69628;47.516;18.828;2024-02-15T05:33:30;11.75;;;5.22;;
80313;SDS011;69628;47.516;18.828;2024-02-15T05:34:32;12.65;;;5.40;;
80313;SDS011;69628;47.516;18.828;2024-02-15T05:35:33;12.60;;;5.25;;
80313;SDS011;69628;47.516;18.828;2024-02-15T05:36:36;13.88;;;6.10;;
80313;SDS011;69628;47.516;18.828;2024-02-15T05:37:38;8.85;;;4.78;;
80313;SDS011;69628;47.516;18.828;2024-02-15T05:38:39;11.55;;;5.95;;
80313;SDS011;69628;47.516;18.828;2024-02-15T05:39:40;11.43;;;4.78;;
80313;SDS011;69628;47.516;18.828;2024-02-15T05:40:41;12.35;;;4.40;;
80313;SDS011;69628;47.516;18.828;2024-02-15T05:41:42;10.50;;;4.70;;
80313;SDS011;69628;47.516;18.828;2024-02-15T05:42:42;11.63;;;4.47;;
80313;SDS011;69628;47.516;18.828;2024-02-15T05:43:46;15.07;;;5.72;;
80313;SDS011;69628;47.516;18.828;2024-02-15T05:44:53;11.60;;;5.28;;
80313;SDS011;69628;47.516;18.828;2024-02-15T05:45:53;6.53;;;4.47;;
80313;SDS011;69628;47.516;18.828;2024-02-15T05:46:53;8.20;;;4.80;;
80313;SDS011;69628;47.516;18.828;2024-02-15T05:47:54;10.65;;;5.22;;
80313;SDS011;69628;47.516;18.828;2024-02-15T05:48:54;14.25;;;4.93;;
80313;SDS011;69628;47.516;18.828;2024-02-15T05:49:55;15.23;;;5.72;;
80313;SDS011;69628;47.516;18.828;2024-02-15T05:50:55;8.32;;;4.75;;
80313;SDS011;69628;47.516;18.828;2024-02-15T05:51:57;13.27;;;4.68;;
80313;SDS011;69628;47.516;18.828;2024-02-15T05:52:57;10.38;;;5.15;;
80313;SDS011;69628;47.516;18.828;2024-02-15T05:53:58;7.75;;;4.20;;
80313;SDS011;69628;47.516;18.828;2024-02-15T05:54:59;13.15;;;5.53;;
80313;SDS011;69628;47.516;18.828;2024-02-15T05:55:59;13.30;;;5.55;;
80313;SDS011;69628;47.516;18.828;2024-02-15T05:57:00;16.42;;;5.88;;
80313;SDS011;69628;47.516;18.828;2024-02-15T05:58:02;11.15;;;5.03;;
80313;SDS011;69628;47.516;18.828;2024-02-15T05:59:02;10.77;;;5.57;;
80313;SDS011;69628;47.516;18.828;2024-02-15T06:00:10;11.57;;;4.80;;
80313;SDS011;69628;47.516;18.828;2024-02-15T06:01:11;11.52;;;4.47;;
80313;SDS011;69628;47.516;18.828;2024-02-15T06:02:13;11.65;;;4.88;;